Time;durP1;ratioP1;P1;durP2;ratioP2;P2;SDS_P1;SDS_P2;PMS_P1;PMS_P2;Temp;Humidity;BMP_temperature;BMP_pressure;BME280_temperature;BME280_humidity;BME280_pressure;Samples;Min_cycle;Max_cycle;Signal;HPM_P1;HPM_P2
2022/08/11 00:00:09;;;;;;;1.55;1.10;;;16.00;99.90;;;;;;5075005;28;20253;-88
2022/08/11 00:02:38;;;;;;;1.80;1.42;;;16.00;99.90;;;;;;5074770;28;20167;-88
2022/08/11 00:05:09;;;;;;;1.38;1.27;;;16.00;99.90;;;;;;5074522;28;20175;-88
2022/08/11 00:07:46;;;;;;;1.83;1.13;;;13.80;99.90;;;;;;5074945;28;20156;-88
2022/08/11 00:10:15;;;;;;;1.45;1.10;;;16.10;99.90;;;;;;5056442;28;20182;-88
2022/08/11 00:12:42;;;;;;;5.25;1.00;;;16.10;99.90;;;;;;5056871;28;20209;-88
2022/08/11 00:15:10;;;;;;;2.00;1.08;;;16.10;99.90;;;;;;5056588;28;20183;-88
2022/08/11 00:17:36;;;;;;;2.00;1.08;;;16.20;99.90;;;;;;5074078;28;20206;-88
2022/08/11 00:20:12;;;;;;;1.73;1.10;;;16.40;99.90;;;;;;5074154;28;20175;-88
2022/08/11 00:22:40;;;;;;;3.85;1.40;;;16.30;99.90;;;;;;5074498;28;20166;-88
2022/08/11 00:25:18;;;;;;;2.42;1.15;;;16.30;99.90;;;;;;5074363;28;20632;-88
2022/08/11 00:27:45;;;;;;;2.20;1.05;;;16.30;99.90;;;;;;5056517;28;20179;-88
2022/08/11 00:30:12;;;;;;;1.30;1.20;;;16.30;99.90;;;;;;5056246;28;20188;-89
2022/08/11 00:32:40;;;;;;;1.98;1.33;;;16.40;99.90;;;;;;5040339;28;20187;-88
2022/08/11 00:35:10;;;;;;;2.42;1.17;;;16.40;99.90;;;;;;5074312;28;20292;-87
2022/08/11 00:37:37;;;;;;;0.90;0.85;;;16.40;99.90;;;;;;5073464;28;20706;-87
2022/08/11 00:40:14;;;;;;;2.08;1.33;;;16.60;99.90;;;;;;5073639;28;20222;-87
2022/08/11 00:43:12;;;;;;;2.40;1.05;;;16.40;99.90;;;;;;5056118;28;20175;-87
2022/08/11 00:45:54;;;;;;;1.25;0.88;;;16.40;99.90;;;;;;5056248;28;20232;-87
2022/08/11 00:48:57;;;;;;;1.25;0.80;;;16.50;99.90;;;;;;5074099;28;20166;-87
2022/08/11 00:51:47;;;;;;;1.27;0.95;;;16.50;99.90;;;;;;5073616;28;20186;-87
2022/08/11 00:54:51;;;;;;;4.22;1.13;;;16.50;99.90;;;;;;5073715;28;20608;-92
2022/08/11 00:58:15;;;;;;;1.77;1.30;;;16.50;99.90;;;;;;5055552;28;20187;-87
2022/08/11 01:01:09;;;;;;;1.60;1.05;;;16.50;99.90;;;;;;5055862;28;20168;-87
2022/08/11 01:04:03;;;;;;;1.45;1.10;;;16.40;99.90;;;;;;5045978;28;20187;-87
2022/08/11 01:06:59;;;;;;;0.95;0.95;;;16.40;99.90;;;;;;5055441;28;20571;-87
2022/08/11 01:09:39;;;;;;;1.25;1.15;;;16.40;99.90;;;;;;5073544;28;20617;-87
2022/08/11 01:12:38;;;;;;;1.95;1.00;;;16.40;99.90;;;;;;5055747;28;20190;-87
2022/08/11 01:15:32;;;;;;;0.77;0.75;;;16.40;99.90;;;;;;5073693;28;20213;-86
2022/08/11 01:18:22;;;;;;;2.22;2.03;;;16.30;99.90;;;;;;5055116;28;20298;-87
2022/08/11 01:20:57;;;;;;;1.55;1.42;;;16.20;99.90;;;;;;5073131;28;20184;-87
2022/08/11 01:23:48;;;;;;;0.80;0.80;;;16.20;99.90;;;;;;5055309;28;20178;-87
2022/08/11 01:26:42;;;;;;;2.15;1.20;;;16.10;99.90;;;;;;5055306;28;20185;-87
2022/08/11 01:29:36;;;;;;;1.75;0.80;;;16.00;99.90;;;;;;5055266;28;20245;-87
2022/08/11 01:32:20;;;;;;;1.65;1.23;;;15.90;99.90;;;;;;5073425;28;20695;-88
2022/08/11 01:35:07;;;;;;;0.80;0.80;;;15.90;99.90;;;;;;5073610;28;20175;-88
2022/08/11 01:37:51;;;;;;;1.08;0.98;;;16.00;99.90;;;;;;5055353;28;20292;-88
2022/08/11 01:40:30;;;;;;;0.60;0.57;;;15.80;99.90;;;;;;5077050;28;20222;-87
2022/08/11 01:46:15;;;;;;;2.05;1.00;;;15.70;99.90;;;;;;5077396;28;20209;-87
2022/08/11 01:49:01;;;;;;;1.30;1.20;;;15.60;99.90;;;;;;5077174;28;20156;-87
2022/08/11 01:51:37;;;;;;;2.20;1.10;;;15.60;99.90;;;;;;5059101;28;20209;-87
2022/08/11 01:54:16;;;;;;;1.67;1.10;;;15.60;99.90;;;;;;5077296;28;20254;-86
2022/08/11 01:57:03;;;;;;;0.95;0.85;;;15.50;99.90;;;;;;5059206;28;20356;-87
2022/08/11 01:59:37;;;;;;;1.23;1.10;;;15.40;99.90;;;;;;5058916;28;20569;-87
2022/08/11 02:02:47;;;;;;;2.75;1.95;;;15.40;99.90;;;;;;5059113;28;20203;-88
2022/08/11 02:05:28;;;;;;;1.83;0.85;;;15.30;99.90;;;;;;5049457;28;20187;-88
2022/08/11 02:08:21;;;;;;;1.95;1.08;;;15.40;99.90;;;;;;5077038;28;20175;-88
2022/08/11 02:13:55;;;;;;;1.67;1.42;;;15.40;99.90;;;;;;5076741;28;20244;-88
2022/08/11 02:16:23;;;;;;;1.10;0.95;;;15.30;99.90;;;;;;5076682;28;20160;-87
2022/08/11 02:25:04;;;;;;;1.15;1.00;;;15.20;99.90;;;;;;5076542;28;20178;-88
2022/08/11 02:27:48;;;;;;;1.20;0.95;;;15.20;99.90;;;;;;5076189;28;20236;-87
2022/08/11 02:30:19;;;;;;;0.70;0.70;;;15.10;99.90;;;;;;5076375;28;20155;-88
2022/08/11 02:33:23;;;;;;;1.40;1.30;;;15.20;99.90;;;;;;5075952;28;20186;-87
2022/08/11 02:35:56;;;;;;;1.08;0.98;;;15.20;99.90;;;;;;5071167;28;20191;-87
2022/08/11 02:38:49;;;;;;;1.77;1.30;;;15.20;99.90;;;;;;5076225;28;20202;-87
2022/08/11 02:45:16;;;;;;;1.73;1.45;;;15.10;99.90;;;;;;4994339;28;20189;-87
2022/08/11 02:51:04;;;;;;;0.80;0.80;;;15.10;99.90;;;;;;5074322;28;20171;-86
2022/08/11 02:53:36;;;;;;;1.08;0.95;;;15.00;99.90;;;;;;5059922;28;20262;-87
2022/08/11 02:56:34;;;;;;;1.05;0.95;;;14.90;99.90;;;;;;5058170;28;20186;-86
2022/08/11 02:59:51;;;;;;;1.60;1.20;;;14.90;99.90;;;;;;5075611;28;20209;-86
2022/08/11 03:02:47;;;;;;;1.70;1.60;;;14.90;99.90;;;;;;4958544;28;20620;-87
2022/08/11 03:05:57;;;;;;;2.03;1.35;;;14.80;99.90;;;;;;5075605;28;20178;-86
2022/08/11 03:08:50;;;;;;;2.15;1.95;;;14.80;99.90;;;;;;5076358;28;20186;-87
2022/08/11 03:18:08;;;;;;;2.00;1.50;;;14.70;99.90;;;;;;5075590;28;20634;-86
2022/08/11 03:21:14;;;;;;;2.75;1.60;;;14.60;99.90;;;;;;5056222;28;20199;-86
2022/08/11 03:23:48;;;;;;;1.92;1.63;;;14.50;99.90;;;;;;5057427;28;20524;-87
2022/08/11 03:26:44;;;;;;;2.42;1.95;;;14.50;99.90;;;;;;5075583;28;20174;-87
2022/08/11 03:29:21;;;;;;;2.13;1.80;;;14.50;99.90;;;;;;5075312;28;20163;-87
2022/08/11 03:32:03;;;;;;;1.05;0.93;;;14.50;99.90;;;;;;5075269;28;20179;-88
2022/08/11 03:34:32;;;;;;;1.02;0.98;;;14.50;99.90;;;;;;5075375;28;20243;-85
2022/08/11 03:37:05;;;;;;;0.93;0.93;;;14.50;99.90;;;;;;5057291;28;20179;-85
2022/08/11 03:39:51;;;;;;;2.42;1.75;;;14.50;99.90;;;;;;5074857;28;20232;-85
2022/08/11 03:42:26;;;;;;;2.38;1.30;;;14.50;99.90;;;;;;5075464;28;20209;-85
2022/08/11 03:45:06;;;;;;;1.45;1.20;;;14.50;99.90;;;;;;5074550;28;20628;-85
2022/08/11 03:48:03;;;;;;;1.63;1.10;;;14.60;99.90;;;;;;5075055;28;20159;-85
2022/08/11 03:50:34;;;;;;;1.40;1.30;;;14.50;99.90;;;;;;5075001;28;20162;-85
2022/08/11 03:53:26;;;;;;;3.63;1.83;;;14.50;99.90;;;;;;5074878;28;20179;-85
2022/08/11 03:56:30;;;;;;;1.60;1.25;;;14.50;99.90;;;;;;5074550;28;20163;-85
2022/08/11 03:59:15;;;;;;;1.13;1.02;;;14.60;99.90;;;;;;5074482;28;20256;-85
2022/08/11 04:02:18;;;;;;;1.20;1.10;;;14.60;99.90;;;;;;5074132;28;20162;-85
2022/08/11 04:05:11;;;;;;;0.90;0.90;;;14.60;99.90;;;;;;5074467;28;20159;-85
2022/08/11 04:07:54;;;;;;;1.27;0.90;;;14.90;99.90;;;;;;5074844;28;20262;-86
2022/08/11 04:10:39;;;;;;;0.90;0.73;;;14.70;99.90;;;;;;5074706;28;20170;-85
2022/08/11 04:13:26;;;;;;;1.17;1.08;;;14.70;99.90;;;;;;5074539;28;20178;-85
2022/08/11 04:16:11;;;;;;;1.75;1.30;;;14.80;99.90;;;;;;5074243;28;20651;-85
2022/08/11 04:18:55;;;;;;;2.60;1.67;;;14.70;99.90;;;;;;5074061;28;20203;-86
2022/08/11 04:22:11;;;;;;;1.90;1.23;;;14.80;99.90;;;;;;5074377;28;20679;-85
2022/08/11 04:25:13;;;;;;;0.80;0.80;;;14.80;99.90;;;;;;4956772;28;20183;-86
2022/08/11 04:27:51;;;;;;;1.85;1.33;;;14.80;99.90;;;;;;5056197;28;20714;-86
2022/08/11 04:30:20;;;;;;;2.17;1.23;;;14.80;99.90;;;;;;5056183;28;20644;-85
2022/08/11 04:33:05;;;;;;;2.08;1.02;;;14.80;99.90;;;;;;5073851;28;20179;-85
2022/08/11 04:35:49;;;;;;;0.93;0.73;;;14.80;99.90;;;;;;5006335;28;20190;-85
2022/08/11 04:38:14;;;;;;;1.75;1.58;;;14.80;99.90;;;;;;5074037;28;20194;-85
2022/08/11 04:41:17;;;;;;;1.85;1.35;;;14.90;99.90;;;;;;5073261;28;20252;-86
2022/08/11 04:44:31;;;;;;;2.20;1.55;;;15.10;99.90;;;;;;5073406;28;20705;-85
2022/08/11 05:01:39;;;;;;;6.40;1.42;;;15.10;99.90;;;;;;5051625;28;20187;-85
2022/08/11 05:02:42;;;;;;;2.42;1.25;;;15.80;99.90;;;;;;5073441;28;20258;-85
2022/08/11 05:05:48;;;;;;;1.63;1.50;;;15.70;99.90;;;;;;5056279;28;20182;-84
2022/08/11 05:08:35;;;;;;;1.13;0.95;;;15.80;99.90;;;;;;5073774;28;20175;-84
2022/08/11 05:11:44;;;;;;;1.25;1.10;;;15.80;99.90;;;;;;5043621;28;20179;-86
2022/08/11 05:57:29;;;;;;;2.03;0.98;;;17.30;99.90;;;;;;5053568;28;20206;-87
2022/08/11 06:00:00;;;;;;;1.00;0.90;;;17.60;99.90;;;;;;5069913;28;20215;-88
2022/08/11 06:02:27;;;;;;;1.30;1.20;;;17.80;99.90;;;;;;5068463;28;20194;-88
2022/08/11 06:04:58;;;;;;;4.00;1.45;;;17.90;99.90;;;;;;5067612;28;20176;-86
2022/08/11 06:07:32;;;;;;;1.75;1.30;;;18.00;99.90;;;;;;5042369;28;20720;-88
2022/08/11 06:09:59;;;;;;;2.10;0.80;;;18.10;99.90;;;;;;5067605;28;20210;-86
2022/08/11 06:12:32;;;;;;;1.50;1.15;;;18.10;99.90;;;;;;5049428;28;20184;-86
2022/08/11 06:15:04;;;;;;;1.40;0.80;;;18.10;99.90;;;;;;5064838;28;20183;-88
2022/08/11 06:17:32;;;;;;;1.83;1.00;;;18.10;99.90;;;;;;5065056;28;20662;-89
2022/08/11 06:20:01;;;;;;;1.25;0.98;;;18.30;99.90;;;;;;5063134;28;20171;-88
2022/08/11 06:22:27;;;;;;;1.13;1.10;;;18.40;99.90;;;;;;5065314;28;20672;-90
2022/08/11 06:24:58;;;;;;;1.05;0.93;;;18.60;99.90;;;;;;5069299;28;20213;-88
2022/08/11 06:27:28;;;;;;;0.90;0.80;;;18.70;99.90;;;;;;5068829;28;20242;-88
2022/08/11 06:29:55;;;;;;;1.20;1.10;;;18.70;99.90;;;;;;5044786;28;20183;-87
2022/08/11 06:32:24;;;;;;;1.08;1.02;;;18.70;99.90;;;;;;5073243;28;20527;-88
2022/08/11 06:35:25;;;;;;;14.98;1.20;;;18.70;99.90;;;;;;5068152;28;20179;-88
2022/08/11 06:38:35;;;;;;;2.33;1.30;;;18.80;99.90;;;;;;5074124;28;20205;-89
2022/08/11 06:41:29;;;;;;;1.15;1.05;;;18.80;99.90;;;;;;5022350;28;20226;-89
2022/08/11 06:44:13;;;;;;;2.08;1.45;;;18.90;99.90;;;;;;5074222;28;20547;-89
2022/08/11 06:46:49;;;;;;;1.27;1.05;;;18.90;99.90;;;;;;5071474;28;20179;-89
2022/08/11 06:52:06;;;;;;;1.65;1.15;;;18.90;99.90;;;;;;5071303;28;20316;-92
2022/08/11 06:54:40;;;;;;;2.20;1.33;;;19.10;99.90;;;;;;5073972;28;20175;-92
2022/08/11 07:02:47;;;;;;;3.72;1.27;;;19.20;99.90;;;;;;5071046;28;20540;-87
2022/08/11 07:05:21;;;;;;;0.95;0.80;;;19.20;99.90;;;;;;5069731;28;20190;-87
2022/08/11 07:16:28;;;;;;;3.83;1.05;;;19.30;99.90;;;;;;5072885;28;20186;-89
2022/08/11 07:30:47;;;;;;;1.30;1.20;;;19.40;99.90;;;;;;5044772;28;20190;-88
2022/08/11 07:33:21;;;;;;;1.98;0.98;;;19.20;99.90;;;;;;5051921;28;20604;-88
2022/08/11 07:35:54;;;;;;;3.03;1.73;;;19.20;99.90;;;;;;5052723;28;20574;-88
2022/08/11 07:38:43;;;;;;;1.15;1.02;;;19.30;99.90;;;;;;5072605;28;20238;-87
2022/08/11 07:41:15;;;;;;;0.98;0.73;;;19.30;99.90;;;;;;5052846;28;20191;-86
2022/08/11 07:43:43;;;;;;;1.27;1.10;;;19.00;99.90;;;;;;5052378;28;20176;-91
2022/08/11 07:54:28;;;;;;;3.95;1.80;;;18.80;99.90;;;;;;5052623;28;20273;-85
2022/08/11 07:56:55;;;;;;;2.15;1.45;;;18.90;99.90;;;;;;5053884;28;20747;-87
2022/08/11 08:18:37;;;;;;;1.23;1.10;;;20.20;99.90;;;;;;5054570;28;20241;-89
2022/08/11 08:21:13;;;;;;;1.45;1.05;;;19.90;99.90;;;;;;5054108;28;20168;-87
2022/08/11 08:23:58;;;;;;;1.02;0.88;;;20.00;99.90;;;;;;5047084;28;20199;-87
2022/08/11 08:31:55;;;;;;;1.42;1.10;;;20.30;99.90;;;;;;5042971;28;20199;-86
2022/08/11 08:34:22;;;;;;;1.42;1.20;;;20.50;99.90;;;;;;5052991;28;20202;-88
2022/08/11 08:36:50;;;;;;;1.88;1.02;;;20.50;99.90;;;;;;5052490;28;20178;-90
2022/08/11 08:39:21;;;;;;;0.95;0.88;;;20.70;99.90;;;;;;5058073;28;20243;-86
2022/08/11 08:41:53;;;;;;;0.70;0.70;;;20.80;99.90;;;;;;5072772;28;20175;-87
2022/08/11 08:44:21;;;;;;;1.00;0.90;;;20.80;99.90;;;;;;5071631;28;20187;-87
2022/08/11 08:46:58;;;;;;;1.00;0.90;;;20.90;99.90;;;;;;5070439;28;20788;-87
2022/08/11 08:49:49;;;;;;;1.17;0.90;;;20.90;99.90;;;;;;5066889;28;20179;-87
2022/08/11 08:52:18;;;;;;;1.42;0.98;;;20.90;99.90;;;;;;5060950;28;20202;-86
2022/08/11 08:54:47;;;;;;;1.00;0.90;;;20.80;99.90;;;;;;5069049;28;20697;-87
2022/08/11 08:57:15;;;;;;;1.10;1.00;;;20.80;99.90;;;;;;5074089;28;20222;-88
2022/08/11 08:59:46;;;;;;;0.80;0.80;;;20.80;99.90;;;;;;5069946;28;20195;-86
2022/08/11 09:02:12;;;;;;;1.50;1.13;;;20.80;99.90;;;;;;5074876;28;20178;-90
2022/08/11 09:04:39;;;;;;;0.93;0.90;;;21.10;99.90;;;;;;5073266;28;20179;-87
2022/08/11 09:07:11;;;;;;;1.15;0.93;;;21.10;99.90;;;;;;5073502;28;20175;-89
2022/08/11 09:09:47;;;;;;;1.70;1.15;;;21.30;99.90;;;;;;5047807;28;20182;-85
2022/08/11 09:12:14;;;;;;;1.15;0.80;;;21.60;99.90;;;;;;5071316;28;20189;-86
2022/08/11 09:14:59;;;;;;;1.40;0.98;;;21.70;99.90;;;;;;5071101;28;20254;-86
2022/08/11 09:17:39;;;;;;;1.23;0.90;;;21.80;99.90;;;;;;5071610;28;20179;-89
2022/08/11 09:20:06;;;;;;;0.98;0.80;;;21.70;99.90;;;;;;5073356;28;20194;-90
2022/08/11 09:28:13;;;;;;;4.35;0.80;;;21.70;99.90;;;;;;5057803;28;20197;-89
2022/08/11 09:30:52;;;;;;;0.75;0.73;;;21.80;99.90;;;;;;5061279;28;20175;-90
2022/08/11 09:33:18;;;;;;;0.50;0.50;;;21.90;99.90;;;;;;5073258;28;20175;-89
2022/08/11 09:35:47;;;;;;;3.65;1.02;;;21.90;99.90;;;;;;5073127;28;20202;-89
2022/08/11 09:41:00;;;;;;;3.00;1.08;;;21.90;99.90;;;;;;5071131;28;20201;-89
2022/08/11 09:46:12;;;;;;;0.75;0.75;;;21.70;99.90;;;;;;5072091;28;20252;-89
2022/08/11 09:48:42;;;;;;;0.63;0.50;;;21.70;99.90;;;;;;5062538;28;20278;-88
2022/08/11 09:51:09;;;;;;;0.85;0.80;;;21.50;99.90;;;;;;5073045;28;20171;-89
2022/08/11 09:53:38;;;;;;;1.08;0.98;;;21.50;99.90;;;;;;5073423;28;20179;-88
2022/08/11 09:58:52;;;;;;;0.68;0.68;;;21.50;99.90;;;;;;5075562;28;20271;-90
2022/08/11 10:01:27;;;;;;;1.77;0.90;;;21.50;99.90;;;;;;5073334;28;20180;-91
2022/08/11 10:04:16;;;;;;;1.08;0.80;;;21.40;99.90;;;;;;5064877;28;20191;-89
2022/08/11 10:07:01;;;;;;;2.65;1.00;;;21.40;99.90;;;;;;5077022;28;20218;-90
2022/08/11 10:09:39;;;;;;;1.13;0.63;;;21.40;99.90;;;;;;5074479;28;20176;-94
2022/08/11 10:12:10;;;;;;;0.63;0.63;;;21.40;99.90;;;;;;5076213;28;20259;-90
2022/08/11 10:17:30;;;;;;;0.93;0.80;;;21.60;99.90;;;;;;5085490;28;20198;-91
2022/08/11 10:19:57;;;;;;;1.25;0.70;;;21.80;99.90;;;;;;5080259;28;20210;-91
2022/08/11 10:27:58;;;;;;;0.50;0.50;;;;;;;;;;5064143;28;20193;-92
2022/08/11 10:36:00;;;;;;;0.77;0.70;;;;;;;;;;5074695;28;20175;-91
2022/08/11 10:38:27;;;;;;;1.88;1.25;;;24.00;99.90;;;;;;5045074;28;20552;-91
2022/08/11 10:43:40;;;;;;;1.17;0.90;;;;;;;;;;5070835;28;20178;-94
2022/08/11 10:48:55;;;;;;;3.05;0.80;;;24.40;99.90;;;;;;5075432;28;20272;-92
2022/08/11 10:59:41;;;;;;;0.47;0.47;;;;;;;;;;5064108;28;20213;-92
2022/08/11 11:02:13;;;;;;;1.13;1.02;;;25.30;99.90;;;;;;5075926;28;20175;-92
2022/08/11 11:04:46;;;;;;;1.35;0.75;;;25.40;99.90;;;;;;5076332;28;20175;-91
2022/08/11 11:07:23;;;;;;;0.90;0.77;;;25.20;99.90;;;;;;5075418;28;20233;-93
2022/08/11 11:10:00;;;;;;;1.08;0.70;;;26.20;99.90;;;;;;5075388;28;20221;-91
2022/08/11 11:18:24;;;;;;;3.47;1.30;;;26.10;95.00;;;;;;5072157;28;20294;-93
2022/08/11 11:21:08;;;;;;;1.20;0.70;;;26.10;99.90;;;;;;5075719;28;20159;-94
2022/08/11 11:24:10;;;;;;;1.17;0.80;;;26.00;99.90;;;;;;5064503;28;20638;-90
2022/08/11 11:26:49;;;;;;;0.80;0.80;;;26.50;99.50;;;;;;5055895;28;20678;-92
2022/08/11 11:29:26;;;;;;;2.78;0.90;;;26.30;99.70;;;;;;5037990;28;20231;-92
2022/08/11 11:32:23;;;;;;;0.68;0.68;;;25.00;99.90;;;;;;5037799;28;20320;-94
2022/08/11 11:34:57;;;;;;;0.85;0.80;;;25.30;99.90;;;;;;5064666;28;20183;-92
2022/08/11 11:37:23;;;;;;;1.15;0.93;;;;;;;;;;5066215;28;20172;-92
2022/08/11 11:39:49;;;;;;;0.95;0.82;;;;;;;;;;5053919;28;20296;-90
2022/08/11 11:42:16;;;;;;;0.85;0.80;;;;;;;;;;5060770;28;20172;-91
2022/08/11 11:44:44;;;;;;;0.90;0.90;;;24.90;92.20;;;;;;5052180;28;20266;-92
2022/08/11 11:47:14;;;;;;;1.33;0.77;;;25.00;92.20;;;;;;5074745;28;20181;-90
2022/08/11 11:49:42;;;;;;;0.90;0.80;;;25.30;91.90;;;;;;5074374;28;20175;-91
2022/08/11 11:52:18;;;;;;;0.75;0.75;;;25.80;99.90;;;;;;5057071;28;20171;-92
2022/08/11 11:54:49;;;;;;;1.00;0.90;;;25.80;99.30;;;;;;5075477;28;20167;-92
2022/08/11 12:02:46;;;;;;;0.75;0.60;;;;;;;;;;5077208;28;20267;-91
2022/08/11 12:05:13;;;;;;;2.50;0.80;;;;;;;;;;5084360;28;20237;-89
2022/08/11 12:10:25;;;;;;;2.90;0.68;;;;;;;;;;5092187;28;20182;-90
2022/08/11 12:15:36;;;;;;;0.73;0.73;;;;;;;;;;5077111;28;20305;-92
2022/08/11 12:18:03;;;;;;;0.82;0.73;;;26.10;94.20;;;;;;5051321;28;20203;-90
2022/08/11 12:20:30;;;;;;;0.80;0.80;;;26.00;80.50;;;;;;5075396;28;20619;-93
2022/08/11 12:28:28;;;;;;;0.73;0.65;;;;;;;;;;5075210;28;20198;-94
2022/08/11 12:30:54;;;;;;;0.63;0.63;;;;;;;;;;5028219;28;20184;-93
2022/08/11 12:33:20;;;;;;;1.35;0.60;;;24.80;91.50;;;;;;5042264;28;20228;-94
2022/08/11 12:35:50;;;;;;;1.85;0.85;;;24.20;95.20;;;;;;5072353;28;20187;-93
2022/08/11 12:38:19;;;;;;;0.80;0.80;;;23.60;96.60;;;;;;5057465;28;20352;-93
2022/08/11 12:46:24;;;;;;;0.40;0.40;;;22.70;99.90;;;;;;5059033;28;20264;-92
2022/08/11 12:51:57;;;;;;;2.33;1.13;;;22.40;99.90;;;;;;5066135;28;20667;-94
2022/08/11 12:54:57;;;;;;;0.52;0.47;;;22.30;99.90;;;;;;5055032;28;20195;-92
2022/08/11 13:05:58;;;;;;;1.25;0.80;;;24.00;99.90;;;;;;5067790;28;20194;-90
2022/08/11 13:08:26;;;;;;;0.80;0.80;;;24.40;99.90;;;;;;5070403;28;20233;-89
2022/08/11 13:13:39;;;;;;;0.95;0.75;;;24.50;99.90;;;;;;5056763;28;20241;-92
2022/08/11 13:16:06;;;;;;;3.85;0.80;;;24.40;99.90;;;;;;5060728;28;20186;-93
2022/08/11 13:18:33;;;;;;;1.15;1.02;;;24.20;99.90;;;;;;5045547;28;20217;-91
2022/08/11 13:20:59;;;;;;;0.90;0.80;;;;;;;;;;5074149;28;20258;-91
2022/08/11 13:23:28;;;;;;;1.25;1.00;;;23.70;99.20;;;;;;5048105;28;20183;-93
2022/08/11 13:25:55;;;;;;;6.60;1.35;;;23.70;98.90;;;;;;5061118;28;20175;-93
2022/08/11 13:28:21;;;;;;;0.65;0.60;;;23.60;99.90;;;;;;5071040;28;20308;-91
2022/08/11 13:33:38;;;;;;;1.00;0.70;;;24.00;99.90;;;;;;5059031;28;20197;-93
2022/08/11 13:36:06;;;;;;;2.00;1.00;;;23.80;99.90;;;;;;5064916;28;20188;-95
2022/08/11 13:38:32;;;;;;;0.93;0.82;;;;;;;;;;5051510;28;20338;-92
2022/08/11 13:40:58;;;;;;;0.77;0.73;;;;;;;;;;5050573;28;20659;-92
2022/08/11 13:43:24;;;;;;;0.93;0.80;;;;;;;;;;5055194;28;20187;-92
2022/08/11 13:46:17;;;;;;;1.02;0.85;;;24.40;99.10;;;;;;5059327;28;20176;-92
2022/08/11 13:48:38;;;;;;;2.97;0.77;;;;;;;;;;5068134;28;20670;-90
2022/08/11 13:53:50;;;;;;;0.68;0.68;;;;;;;;;;5057624;28;20178;-93
2022/08/11 13:56:16;;;;;;;0.90;0.77;;;;;;;;;;5072553;28;20185;-91
2022/08/11 13:58:42;;;;;;;0.70;0.70;;;;;;;;;;5070434;28;20294;-90
2022/08/11 14:01:10;;;;;;;0.60;0.60;;;21.00;99.90;;;;;;5054116;28;20190;-91
2022/08/11 14:03:39;;;;;;;1.23;0.85;;;20.80;99.90;;;;;;5077863;28;20241;-90
2022/08/11 14:06:07;;;;;;;0.77;0.57;;;20.90;99.90;;;;;;5058515;28;20179;-90
2022/08/11 14:08:37;;;;;;;1.10;0.88;;;20.50;99.90;;;;;;5055226;28;20244;-90
2022/08/11 14:13:52;;;;;;;0.60;0.60;;;20.50;99.90;;;;;;5044013;28;20179;-91
2022/08/11 14:16:34;;;;;;;0.77;0.70;;;20.50;99.90;;;;;;5058514;28;20662;-92
2022/08/11 14:19:04;;;;;;;0.80;0.73;;;20.30;99.90;;;;;;5066614;28;20282;-90
2022/08/11 14:24:20;;;;;;;0.60;0.60;;;;;;;;;;5070740;28;20186;-91
2022/08/11 14:26:47;;;;;;;0.60;0.60;;;20.10;99.90;;;;;;5048891;28;20289;-92
2022/08/11 14:29:16;;;;;;;1.13;0.63;;;20.10;99.90;;;;;;5051686;28;20633;-91
2022/08/11 14:31:58;;;;;;;0.70;0.70;;;20.20;99.90;;;;;;5072889;28;20174;-90
2022/08/11 14:34:33;;;;;;;1.10;0.50;;;20.20;99.90;;;;;;5069938;28;20377;-91
2022/08/11 14:37:04;;;;;;;0.98;0.70;;;20.40;99.90;;;;;;5063040;28;20199;-91
2022/08/11 14:39:41;;;;;;;0.85;0.80;;;20.40;99.90;;;;;;5068284;28;20338;-91
2022/08/11 14:47:49;;;;;;;1.60;0.93;;;20.60;99.90;;;;;;5055111;28;20199;-90
2022/08/11 14:50:24;;;;;;;1.08;0.80;;;20.60;99.90;;;;;;5058462;28;20266;-88
2022/08/11 14:52:51;;;;;;;0.73;0.65;;;20.60;99.90;;;;;;5054652;28;20187;-85
2022/08/11 14:58:04;;;;;;;1.38;0.70;;;20.50;99.90;;;;;;5055138;28;20223;-87
2022/08/11 15:00:31;;;;;;;0.55;0.50;;;20.60;99.90;;;;;;5040476;28;20192;-88
2022/08/11 15:03:10;;;;;;;0.65;0.65;;;20.80;99.90;;;;;;5054341;28;20176;-86
2022/08/11 15:05:50;;;;;;;0.90;0.75;;;20.90;99.90;;;;;;5054906;28;20180;-90
2022/08/11 15:08:17;;;;;;;3.50;0.90;;;21.10;99.90;;;;;;5037028;28;20582;-88
2022/08/11 15:10:45;;;;;;;1.10;1.00;;;21.40;99.90;;;;;;5053990;28;20216;-89
2022/08/11 15:13:11;;;;;;;0.73;0.73;;;21.40;99.90;;;;;;5052030;28;20191;-93
2022/08/11 15:18:25;;;;;;;1.25;0.98;;;21.50;99.90;;;;;;5053871;28;20218;-90
2022/08/11 15:37:41;;;;;;;0.77;0.77;;;22.30;99.90;;;;;;5055275;28;20171;-92
2022/08/11 15:46:06;;;;;;;1.33;0.70;;;22.60;99.90;;;;;;5049784;28;20194;-92
2022/08/11 15:48:32;;;;;;;1.17;1.00;;;23.10;99.90;;;;;;5045158;28;20732;-92
2022/08/11 15:51:10;;;;;;;2.47;1.17;;;22.90;99.90;;;;;;5036387;28;20181;-91
2022/08/11 15:54:01;;;;;;;1.02;0.85;;;23.00;99.90;;;;;;5051765;28;20172;-92
2022/08/11 15:56:30;;;;;;;1.10;1.00;;;23.30;99.90;;;;;;5034443;28;20203;-89
2022/08/11 16:04:33;;;;;;;1.05;0.95;;;23.40;99.90;;;;;;5038420;28;20186;-89
2022/08/11 16:07:00;;;;;;;1.23;0.82;;;23.60;99.90;;;;;;5054734;28;20237;-90
2022/08/11 16:09:26;;;;;;;2.05;0.80;;;;;;;;;;5036788;28;20641;-89
2022/08/11 16:11:55;;;;;;;1.08;0.82;;;23.90;99.90;;;;;;5053342;28;20183;-89
2022/08/11 16:17:11;;;;;;;0.80;0.70;;;23.30;99.90;;;;;;5054071;28;20703;-90
2022/08/11 16:19:40;;;;;;;0.88;0.88;;;22.80;99.90;;;;;;5054213;28;20295;-89
2022/08/11 16:22:09;;;;;;;0.52;0.52;;;23.00;99.90;;;;;;5053849;28;20172;-89
2022/08/11 16:24:42;;;;;;;0.95;0.65;;;22.80;99.90;;;;;;5036839;28;20187;-90
2022/08/11 16:27:11;;;;;;;0.70;0.70;;;22.40;99.90;;;;;;5054593;28;20160;-89
2022/08/11 16:29:42;;;;;;;1.73;0.90;;;22.30;99.90;;;;;;5054684;28;20266;-90
2022/08/11 16:32:19;;;;;;;1.35;0.65;;;22.20;99.90;;;;;;5036433;28;20692;-91
2022/08/11 16:40:21;;;;;;;1.30;0.73;;;21.70;99.90;;;;;;5068627;28;20292;-88
2022/08/11 16:48:22;;;;;;;1.65;0.95;;;21.60;99.90;;;;;;5054031;28;20178;-88
2022/08/11 16:50:49;;;;;;;0.80;0.80;;;;;;;;;;5053816;28;20282;-91
2022/08/11 16:53:16;;;;;;;1.02;0.75;;;;;;;;;;5036545;28;20652;-90
2022/08/11 16:55:44;;;;;;;0.77;0.77;;;21.60;99.90;;;;;;5056683;28;20164;-91
2022/08/11 17:01:03;;;;;;;1.00;0.90;;;21.60;99.90;;;;;;5053549;28;20184;-92
2022/08/11 17:13:39;;;;;;;0.60;0.60;;;21.40;99.90;;;;;;4972925;29;20181;-88
2022/08/11 17:16:10;;;;;;;2.05;1.00;;;21.40;99.90;;;;;;4992973;28;20195;-89
2022/08/11 17:19:03;;;;;;;1.92;0.90;;;21.30;99.90;;;;;;5062774;28;20202;-89
2022/08/11 17:24:26;;;;;;;1.13;1.02;;;;;;;;;;5067483;28;20183;-87
2022/08/11 17:26:56;;;;;;;0.75;0.70;;;21.20;99.90;;;;;;5065363;28;20176;-89
2022/08/11 17:29:37;;;;;;;0.82;0.65;;;20.80;99.90;;;;;;5046876;28;20202;-91
2022/08/11 17:35:29;;;;;;;1.30;0.73;;;21.00;99.90;;;;;;5069899;28;20174;-88
2022/08/11 17:38:13;;;;;;;2.08;1.25;;;20.90;99.90;;;;;;5036372;28;20179;-88
2022/08/11 17:49:15;;;;;;;1.58;1.30;;;20.80;99.90;;;;;;5039553;28;20179;-91
2022/08/11 18:00:01;;;;;;;1.42;0.95;;;20.70;99.90;;;;;;5071414;28;20217;-93
2022/08/11 18:05:29;;;;;;;1.42;1.15;;;20.70;99.90;;;;;;5054358;28;20167;-89
